sensor_id;sensor_type;location;lat;lon;timestamp;pressure;altitude;pressure_sealevel;temperature
14851;BMP180;7517;48.400;11.770;2023-03-03T00:01:33;96419.00;;;6.60
14851;BMP180;7517;48.400;11.770;2023-03-03T00:04:02;96407.00;;;6.60
14851;BMP180;7517;48.400;11.770;2023-03-03T00:06:30;96419.00;;;6.60
14851;BMP180;7517;48.400;11.770;2023-03-03T00:08:58;96422.00;;;6.50
14851;BMP180;7517;48.400;11.770;2023-03-03T00:11:26;96421.00;;;6.50
14851;BMP180;7517;48.400;11.770;2023-03-03T00:13:56;96420.00;;;6.50
14851;BMP180;7517;48.400;11.770;2023-03-03T00:16:30;96420.00;;;6.50
14851;BMP180;7517;48.400;11.770;2023-03-03T00:18:59;96428.00;;;6.50
14851;BMP180;7517;48.400;11.770;2023-03-03T00:21:30;96416.00;;;6.50
14851;BMP180;7517;48.400;11.770;2023-03-03T00:24:17;96414.00;;;6.50
14851;BMP180;7517;48.400;11.770;2023-03-03T00:26:47;96413.00;;;6.40
14851;BMP180;7517;48.400;11.770;2023-03-03T00:29:32;96412.00;;;6.40
14851;BMP180;7517;48.400;11.770;2023-03-03T00:32:21;96414.00;;;6.40
14851;BMP180;7517;48.400;11.770;2023-03-03T00:34:50;96415.00;;;6.40
14851;BMP180;7517;48.400;11.770;2023-03-03T00:37:34;96417.00;;;6.40
14851;BMP180;7517;48.400;11.770;2023-03-03T00:40:19;96409.00;;;6.30
14851;BMP180;7517;48.400;11.770;2023-03-03T00:42:50;96421.00;;;6.30
14851;BMP180;7517;48.400;11.770;2023-03-03T00:45:31;96416.00;;;6.30
14851;BMP180;7517;48.400;11.770;2023-03-03T00:48:20;96414.00;;;6.30
14851;BMP180;7517;48.400;11.770;2023-03-03T00:50:49;96411.00;;;6.30
14851;BMP180;7517;48.400;11.770;2023-03-03T00:53:19;96413.00;;;6.20
14851;BMP180;7517;48.400;11.770;2023-03-03T00:55:49;96418.00;;;6.20
14851;BMP180;7517;48.400;11.770;2023-03-03T00:58:19;96427.00;;;6.20
14851;BMP180;7517;48.400;11.770;2023-03-03T01:00:48;96416.00;;;6.20
14851;BMP180;7517;48.400;11.770;2023-03-03T01:03:20;96422.00;;;6.20
14851;BMP180;7517;48.400;11.770;2023-03-03T01:05:48;96418.00;;;6.20
14851;BMP180;7517;48.400;11.770;2023-03-03T01:08:15;96412.00;;;6.10
14851;BMP180;7517;48.400;11.770;2023-03-03T01:10:48;96413.00;;;6.10
14851;BMP180;7517;48.400;11.770;2023-03-03T01:13:17;96404.00;;;6.10
14851;BMP180;7517;48.400;11.770;2023-03-03T01:15:45;96404.00;;;6.10
14851;BMP180;7517;48.400;11.770;2023-03-03T01:18:14;96402.00;;;6.10
14851;BMP180;7517;48.400;11.770;2023-03-03T01:20:43;96401.00;;;6.10
14851;BMP180;7517;48.400;11.770;2023-03-03T01:23:10;96407.00;;;6.10
14851;BMP180;7517;48.400;11.770;2023-03-03T01:25:38;96399.00;;;6.10
14851;BMP180;7517;48.400;11.770;2023-03-03T01:28:06;96395.00;;;6.10
14851;BMP180;7517;48.400;11.770;2023-03-03T01:30:35;96400.00;;;6.10
14851;BMP180;7517;48.400;11.770;2023-03-03T01:33:02;96406.00;;;6.10
14851;BMP180;7517;48.400;11.770;2023-03-03T01:35:30;96409.00;;;6.10
14851;BMP180;7517;48.400;11.770;2023-03-03T01:38:00;96406.00;;;6.10
14851;BMP180;7517;48.400;11.770;2023-03-03T01:40:30;96414.00;;;6.10
14851;BMP180;7517;48.400;11.770;2023-03-03T01:42:59;96408.00;;;6.10
14851;BMP180;7517;48.400;11.770;2023-03-03T01:45:29;96409.00;;;6.00
14851;BMP180;7517;48.400;11.770;2023-03-03T01:48:00;96409.00;;;6.00
14851;BMP180;7517;48.400;11.770;2023-03-03T01:50:40;96420.00;;;6.00
14851;BMP180;7517;48.400;11.770;2023-03-03T01:53:18;96414.00;;;6.00
14851;BMP180;7517;48.400;11.770;2023-03-03T01:55:46;96417.00;;;5.90
14851;BMP180;7517;48.400;11.770;2023-03-03T01:58:19;96420.00;;;5.90
14851;BMP180;7517;48.400;11.770;2023-03-03T02:00:54;96418.00;;;5.90
14851;BMP180;7517;48.400;11.770;2023-03-03T02:03:25;96409.00;;;5.90
14851;BMP180;7517;48.400;11.770;2023-03-03T02:05:58;96401.00;;;5.90
14851;BMP180;7517;48.400;11.770;2023-03-03T02:08:39;96417.00;;;5.90
14851;BMP180;7517;48.400;11.770;2023-03-03T02:11:10;96413.00;;;5.90
14851;BMP180;7517;48.400;11.770;2023-03-03T02:13:38;96405.00;;;5.90
14851;BMP180;7517;48.400;11.770;2023-03-03T02:16:07;96403.00;;;5.80
14851;BMP180;7517;48.400;11.770;2023-03-03T02:18:35;96401.00;;;5.80
14851;BMP180;7517;48.400;11.770;2023-03-03T02:21:08;96404.00;;;5.80
14851;BMP180;7517;48.400;11.770;2023-03-03T02:23:48;96402.00;;;5.80
14851;BMP180;7517;48.400;11.770;2023-03-03T02:26:21;96403.00;;;5.80
14851;BMP180;7517;48.400;11.770;2023-03-03T02:28:50;96405.00;;;5.80
14851;BMP180;7517;48.400;11.770;2023-03-03T02:31:21;96395.00;;;5.80
14851;BMP180;7517;48.400;11.770;2023-03-03T02:33:52;96403.00;;;5.80
14851;BMP180;7517;48.400;11.770;2023-03-03T02:36:23;96403.00;;;5.80
14851;BMP180;7517;48.400;11.770;2023-03-03T02:38:58;96405.00;;;5.80
14851;BMP180;7517;48.400;11.770;2023-03-03T02:41:35;96407.00;;;5.80
14851;BMP180;7517;48.400;11.770;2023-03-03T02:44:08;96395.00;;;5.80
14851;BMP180;7517;48.400;11.770;2023-03-03T02:46:41;96393.00;;;5.80
14851;BMP180;7517;48.400;11.770;2023-03-03T02:49:12;96393.00;;;5.80
14851;BMP180;7517;48.400;11.770;2023-03-03T02:51:40;96399.00;;;5.80
14851;BMP180;7517;48.400;11.770;2023-03-03T02:54:10;96402.00;;;5.70
14851;BMP180;7517;48.400;11.770;2023-03-03T02:56:41;96400.00;;;5.70
14851;BMP180;7517;48.400;11.770;2023-03-03T02:59:10;96396.00;;;5.70
14851;BMP180;7517;48.400;11.770;2023-03-03T03:01:38;96400.00;;;5.70
14851;BMP180;7517;48.400;11.770;2023-03-03T03:04:08;96401.00;;;5.70
14851;BMP180;7517;48.400;11.770;2023-03-03T03:06:36;96396.00;;;5.70
14851;BMP180;7517;48.400;11.770;2023-03-03T03:09:06;96391.00;;;5.70
14851;BMP180;7517;48.400;11.770;2023-03-03T03:11:35;96394.00;;;5.70
14851;BMP180;7517;48.400;11.770;2023-03-03T03:14:07;96393.00;;;5.60
14851;BMP180;7517;48.400;11.770;2023-03-03T03:16:35;96398.00;;;5.60
14851;BMP180;7517;48.400;11.770;2023-03-03T03:19:04;96398.00;;;5.60
14851;BMP180;7517;48.400;11.770;2023-03-03T03:21:32;96387.00;;;5.60
14851;BMP180;7517;48.400;11.770;2023-03-03T03:24:00;96397.00;;;5.60
14851;BMP180;7517;48.400;11.770;2023-03-03T03:26:27;96398.00;;;5.60
14851;BMP180;7517;48.400;11.770;2023-03-03T03:28:57;96406.00;;;5.60
14851;BMP180;7517;48.400;11.770;2023-03-03T03:31:26;96400.00;;;5.70
14851;BMP180;7517;48.400;11.770;2023-03-03T03:33:54;96400.00;;;5.70
14851;BMP180;7517;48.400;11.770;2023-03-03T03:36:21;96401.00;;;5.70
14851;BMP180;7517;48.400;11.770;2023-03-03T03:38:48;96396.00;;;5.80
14851;BMP180;7517;48.400;11.770;2023-03-03T03:41:17;96409.00;;;5.80
14851;BMP180;7517;48.400;11.770;2023-03-03T03:43:44;96412.00;;;5.80
14851;BMP180;7517;48.400;11.770;2023-03-03T03:46:11;96416.00;;;5.90
14851;BMP180;7517;48.400;11.770;2023-03-03T03:48:44;96420.00;;;5.90
14851;BMP180;7517;48.400;11.770;2023-03-03T03:51:11;96417.00;;;6.00
14851;BMP180;7517;48.400;11.770;2023-03-03T03:53:39;96419.00;;;6.00
14851;BMP180;7517;48.400;11.770;2023-03-03T03:56:06;96419.00;;;6.10
14851;BMP180;7517;48.400;11.770;2023-03-03T03:58:34;96418.00;;;6.10
14851;BMP180;7517;48.400;11.770;2023-03-03T04:01:02;96410.00;;;6.20
14851;BMP180;7517;48.400;11.770;2023-03-03T04:03:30;96413.00;;;6.20
14851;BMP180;7517;48.400;11.770;2023-03-03T04:05:59;96417.00;;;6.20
14851;BMP180;7517;48.400;11.770;2023-03-03T04:08:27;96416.00;;;6.20
14851;BMP180;7517;48.400;11.770;2023-03-03T04:10:55;96420.00;;;6.30
14851;BMP180;7517;48.400;11.770;2023-03-03T04:13:22;96409.00;;;6.30
14851;BMP180;7517;48.400;11.770;2023-03-03T04:15:53;96405.00;;;6.30
14851;BMP180;7517;48.400;11.770;2023-03-03T04:18:20;96406.00;;;6.40
14851;BMP180;7517;48.400;11.770;2023-03-03T04:20:49;96412.00;;;6.40
14851;BMP180;7517;48.400;11.770;2023-03-03T04:23:20;96421.00;;;6.40
14851;BMP180;7517;48.400;11.770;2023-03-03T04:25:49;96408.00;;;6.40
14851;BMP180;7517;48.400;11.770;2023-03-03T04:28:17;96415.00;;;6.50
14851;BMP180;7517;48.400;11.770;2023-03-03T04:30:46;96408.00;;;6.50
14851;BMP180;7517;48.400;11.770;2023-03-03T04:33:14;96413.00;;;6.50
14851;BMP180;7517;48.400;11.770;2023-03-03T04:35:41;96412.00;;;6.60
14851;BMP180;7517;48.400;11.770;2023-03-03T04:38:08;96414.00;;;6.60
14851;BMP180;7517;48.400;11.770;2023-03-03T04:40:39;96402.00;;;6.60
14851;BMP180;7517;48.400;11.770;2023-03-03T04:43:06;96412.00;;;6.60
14851;BMP180;7517;48.400;11.770;2023-03-03T04:45:34;96404.00;;;6.70
14851;BMP180;7517;48.400;11.770;2023-03-03T04:48:01;96404.00;;;6.70
14851;BMP180;7517;48.400;11.770;2023-03-03T04:50:28;96403.00;;;6.70
14851;BMP180;7517;48.400;11.770;2023-03-03T04:52:56;96400.00;;;6.70
14851;BMP180;7517;48.400;11.770;2023-03-03T04:55:24;96407.00;;;6.80
14851;BMP180;7517;48.400;11.770;2023-03-03T04:57:53;96401.00;;;6.80
14851;BMP180;7517;48.400;11.770;2023-03-03T05:00:20;96407.00;;;6.80
14851;BMP180;7517;48.400;11.770;2023-03-03T05:02:48;96412.00;;;6.80
14851;BMP180;7517;48.400;11.770;2023-03-03T05:05:17;96413.00;;;6.90
14851;BMP180;7517;48.400;11.770;2023-03-03T05:07:44;96414.00;;;6.90
14851;BMP180;7517;48.400;11.770;2023-03-03T05:10:12;96411.00;;;6.90
14851;BMP180;7517;48.400;11.770;2023-03-03T05:12:39;96411.00;;;6.90
14851;BMP180;7517;48.400;11.770;2023-03-03T05:15:10;96411.00;;;6.90
14851;BMP180;7517;48.400;11.770;2023-03-03T05:17:38;96418.00;;;6.90
14851;BMP180;7517;48.400;11.770;2023-03-03T05:20:08;96426.00;;;7.00
14851;BMP180;7517;48.400;11.770;2023-03-03T05:22:36;96425.00;;;7.00
14851;BMP180;7517;48.400;11.770;2023-03-03T05:25:05;96423.00;;;7.00
14851;BMP180;7517;48.400;11.770;2023-03-03T05:27:34;96425.00;;;7.00
14851;BMP180;7517;48.400;11.770;2023-03-03T05:30:01;96422.00;;;7.00
14851;BMP180;7517;48.400;11.770;2023-03-03T05:32:31;96428.00;;;7.00
14851;BMP180;7517;48.400;11.770;2023-03-03T05:34:58;96438.00;;;7.00
14851;BMP180;7517;48.400;11.770;2023-03-03T05:37:25;96423.00;;;7.00
14851;BMP180;7517;48.400;11.770;2023-03-03T05:39:52;96426.00;;;7.00
14851;BMP180;7517;48.400;11.770;2023-03-03T05:42:20;96427.00;;;7.00
14851;BMP180;7517;48.400;11.770;2023-03-03T05:44:48;96426.00;;;7.10
14851;BMP180;7517;48.400;11.770;2023-03-03T05:47:16;96427.00;;;7.00
14851;BMP180;7517;48.400;11.770;2023-03-03T05:49:45;96436.00;;;7.10
14851;BMP180;7517;48.400;11.770;2023-03-03T05:52:13;96434.00;;;7.10
14851;BMP180;7517;48.400;11.770;2023-03-03T05:54:43;96429.00;;;7.10
14851;BMP180;7517;48.400;11.770;2023-03-03T05:57:11;96445.00;;;7.10
14851;BMP180;7517;48.400;11.770;2023-03-03T05:59:39;96454.00;;;7.10
14851;BMP180;7517;48.400;11.770;2023-03-03T06:02:08;96454.00;;;7.20
14851;BMP180;7517;48.400;11.770;2023-03-03T06:04:35;96460.00;;;7.20
14851;BMP180;7517;48.400;11.770;2023-03-03T06:07:04;96461.00;;;7.30
14851;BMP180;7517;48.400;11.770;2023-03-03T06:09:32;96453.00;;;7.40
14851;BMP180;7517;48.400;11.770;2023-03-03T06:11:59;96461.00;;;7.40
14851;BMP180;7517;48.400;11.770;2023-03-03T06:14:26;96460.00;;;7.50
14851;BMP180;7517;48.400;11.770;2023-03-03T06:16:54;96457.00;;;7.50
14851;BMP180;7517;48.400;11.770;2023-03-03T06:19:22;96460.00;;;7.60
14851;BMP180;7517;48.400;11.770;2023-03-03T06:21:50;96451.00;;;7.60
14851;BMP180;7517;48.400;11.770;2023-03-03T06:24:19;96462.00;;;7.60
14851;BMP180;7517;48.400;11.770;2023-03-03T06:26:49;96464.00;;;7.60
14851;BMP180;7517;48.400;11.770;2023-03-03T06:29:16;96455.00;;;7.60
14851;BMP180;7517;48.400;11.770;2023-03-03T06:31:43;96462.00;;;7.70
14851;BMP180;7517;48.400;11.770;2023-03-03T06:34:11;96462.00;;;7.70
14851;BMP180;7517;48.400;11.770;2023-03-03T06:36:38;96472.00;;;7.70
14851;BMP180;7517;48.400;11.770;2023-03-03T06:39:06;96476.00;;;7.80
14851;BMP180;7517;48.400;11.770;2023-03-03T06:41:35;96471.00;;;7.80
14851;BMP180;7517;48.400;11.770;2023-03-03T06:44:02;96483.00;;;7.80
14851;BMP180;7517;48.400;11.770;2023-03-03T06:46:30;96483.00;;;7.90
14851;BMP180;7517;48.400;11.770;2023-03-03T06:48:58;96490.00;;;7.90
14851;BMP180;7517;48.400;11.770;2023-03-03T06:51:31;96507.00;;;7.90
14851;BMP180;7517;48.400;11.770;2023-03-03T06:54:08;96503.00;;;8.00
14851;BMP180;7517;48.400;11.770;2023-03-03T06:56:40;96513.00;;;8.00
14851;BMP180;7517;48.400;11.770;2023-03-03T06:59:13;96517.00;;;8.10
14851;BMP180;7517;48.400;11.770;2023-03-03T07:01:42;96520.00;;;8.10
14851;BMP180;7517;48.400;11.770;2023-03-03T07:04:27;96522.00;;;8.20
14851;BMP180;7517;48.400;11.770;2023-03-03T07:06:57;96519.00;;;8.20
14851;BMP180;7517;48.400;11.770;2023-03-03T07:09:28;96518.00;;;8.30
14851;BMP180;7517;48.400;11.770;2023-03-03T07:12:01;96518.00;;;8.30
14851;BMP180;7517;48.400;11.770;2023-03-03T07:14:34;96516.00;;;8.30
14851;BMP180;7517;48.400;11.770;2023-03-03T07:17:13;96525.00;;;8.40
14851;BMP180;7517;48.400;11.770;2023-03-03T07:19:43;96518.00;;;8.40
14851;BMP180;7517;48.400;11.770;2023-03-03T07:22:15;96520.00;;;8.50
14851;BMP180;7517;48.400;11.770;2023-03-03T07:24:46;96533.00;;;8.50
14851;BMP180;7517;48.400;11.770;2023-03-03T07:27:22;96533.00;;;8.50
14851;BMP180;7517;48.400;11.770;2023-03-03T07:29:53;96524.00;;;8.60
14851;BMP180;7517;48.400;11.770;2023-03-03T07:32:36;96525.00;;;8.60
14851;BMP180;7517;48.400;11.770;2023-03-03T07:35:28;96516.00;;;8.60
14851;BMP180;7517;48.400;11.770;2023-03-03T07:37:56;96525.00;;;8.60
14851;BMP180;7517;48.400;11.770;2023-03-03T07:40:36;96529.00;;;8.70
14851;BMP180;7517;48.400;11.770;2023-03-03T07:43:33;96538.00;;;8.70
14851;BMP180;7517;48.400;11.770;2023-03-03T07:46:19;96546.00;;;8.80
14851;BMP180;7517;48.400;11.770;2023-03-03T07:48:50;96537.00;;;8.80
14851;BMP180;7517;48.400;11.770;2023-03-03T07:51:22;96553.00;;;8.90
14851;BMP180;7517;48.400;11.770;2023-03-03T07:53:53;96548.00;;;8.90
14851;BMP180;7517;48.400;11.770;2023-03-03T07:56:29;96554.00;;;9.00
14851;BMP180;7517;48.400;11.770;2023-03-03T07:58:58;96548.00;;;9.10
14851;BMP180;7517;48.400;11.770;2023-03-03T08:01:37;96546.00;;;9.10
14851;BMP180;7517;48.400;11.770;2023-03-03T08:04:17;96556.00;;;9.20
14851;BMP180;7517;48.400;11.770;2023-03-03T08:06:51;96561.00;;;9.30
14851;BMP180;7517;48.400;11.770;2023-03-03T08:09:56;96565.00;;;9.40
14851;BMP180;7517;48.400;11.770;2023-03-03T08:12:39;96562.00;;;9.40
14851;BMP180;7517;48.400;11.770;2023-03-03T08:15:21;96563.00;;;9.50
14851;BMP180;7517;48.400;11.770;2023-03-03T08:17:52;96569.00;;;9.60
14851;BMP180;7517;48.400;11.770;2023-03-03T08:20:45;96565.00;;;9.60
14851;BMP180;7517;48.400;11.770;2023-03-03T08:23:15;96562.00;;;9.70
14851;BMP180;7517;48.400;11.770;2023-03-03T08:25:43;96566.00;;;9.70
14851;BMP180;7517;48.400;11.770;2023-03-03T08:28:13;96566.00;;;9.70
14851;BMP180;7517;48.400;11.770;2023-03-03T08:30:43;96567.00;;;9.80
14851;BMP180;7517;48.400;11.770;2023-03-03T08:33:11;96574.00;;;9.90
14851;BMP180;7517;48.400;11.770;2023-03-03T08:35:40;96572.00;;;10.00
14851;BMP180;7517;48.400;11.770;2023-03-03T08:38:09;96565.00;;;10.00
14851;BMP180;7517;48.400;11.770;2023-03-03T08:40:38;96574.00;;;10.10
14851;BMP180;7517;48.400;11.770;2023-03-03T08:43:07;96568.00;;;10.20
14851;BMP180;7517;48.400;11.770;2023-03-03T08:45:36;96579.00;;;10.20
14851;BMP180;7517;48.400;11.770;2023-03-03T08:48:06;96573.00;;;10.30
14851;BMP180;7517;48.400;11.770;2023-03-03T08:50:33;96577.00;;;10.40
14851;BMP180;7517;48.400;11.770;2023-03-03T08:53:01;96583.00;;;10.40
14851;BMP180;7517;48.400;11.770;2023-03-03T08:55:29;96591.00;;;10.50
14851;BMP180;7517;48.400;11.770;2023-03-03T08:57:57;96593.00;;;10.60
14851;BMP180;7517;48.400;11.770;2023-03-03T09:00:25;96586.00;;;10.60
14851;BMP180;7517;48.400;11.770;2023-03-03T09:02:53;96596.00;;;10.70
14851;BMP180;7517;48.400;11.770;2023-03-03T09:05:23;96602.00;;;10.80
14851;BMP180;7517;48.400;11.770;2023-03-03T09:07:52;96595.00;;;10.80
14851;BMP180;7517;48.400;11.770;2023-03-03T09:10:23;96591.00;;;10.90
14851;BMP180;7517;48.400;11.770;2023-03-03T09:12:53;96600.00;;;10.90
14851;BMP180;7517;48.400;11.770;2023-03-03T09:15:25;96594.00;;;11.00
14851;BMP180;7517;48.400;11.770;2023-03-03T09:17:56;96597.00;;;11.10
14851;BMP180;7517;48.400;11.770;2023-03-03T09:20:37;96602.00;;;11.20
14851;BMP180;7517;48.400;11.770;2023-03-03T09:23:29;96605.00;;;11.30
14851;BMP180;7517;48.400;11.770;2023-03-03T09:26:21;96606.00;;;11.40
14851;BMP180;7517;48.400;11.770;2023-03-03T09:28:52;96606.00;;;11.50
14851;BMP180;7517;48.400;11.770;2023-03-03T09:31:31;96611.00;;;11.70
14851;BMP180;7517;48.400;11.770;2023-03-03T09:34:13;96613.00;;;11.80
14851;BMP180;7517;48.400;11.770;2023-03-03T09:36:43;96618.00;;;11.90
14851;BMP180;7517;48.400;11.770;2023-03-03T09:39:17;96615.00;;;12.00
14851;BMP180;7517;48.400;11.770;2023-03-03T09:42:21;96624.00;;;12.10
14851;BMP180;7517;48.400;11.770;2023-03-03T09:45:35;96632.00;;;12.20
14851;BMP180;7517;48.400;11.770;2023-03-03T09:48:49;96632.00;;;12.30
14851;BMP180;7517;48.400;11.770;2023-03-03T09:51:40;96631.00;;;12.30
14851;BMP180;7517;48.400;11.770;2023-03-03T09:54:37;96625.00;;;12.40
14851;BMP180;7517;48.400;11.770;2023-03-03T09:57:13;96622.00;;;12.40
14851;BMP180;7517;48.400;11.770;2023-03-03T10:00:13;96622.00;;;12.50
14851;BMP180;7517;48.400;11.770;2023-03-03T10:03:01;96631.00;;;12.60
14851;BMP180;7517;48.400;11.770;2023-03-03T10:05:42;96633.00;;;12.70
14851;BMP180;7517;48.400;11.770;2023-03-03T10:08:32;96629.00;;;12.70
14851;BMP180;7517;48.400;11.770;2023-03-03T10:11:17;96630.00;;;12.80
14851;BMP180;7517;48.400;11.770;2023-03-03T10:14:08;96622.00;;;13.00
14851;BMP180;7517;48.400;11.770;2023-03-03T10:16:52;96634.00;;;13.30
14851;BMP180;7517;48.400;11.770;2023-03-03T10:19:36;96638.00;;;13.60
14851;BMP180;7517;48.400;11.770;2023-03-03T10:22:19;96637.00;;;13.90
14851;BMP180;7517;48.400;11.770;2023-03-03T10:25:03;96634.00;;;14.20
14851;BMP180;7517;48.400;11.770;2023-03-03T10:27:54;96644.00;;;14.40
14851;BMP180;7517;48.400;11.770;2023-03-03T10:30:37;96655.00;;;14.70
14851;BMP180;7517;48.400;11.770;2023-03-03T10:33:15;96656.00;;;14.80
14851;BMP180;7517;48.400;11.770;2023-03-03T10:36:11;96658.00;;;14.90
14851;BMP180;7517;48.400;11.770;2023-03-03T10:38:58;96659.00;;;15.00
14851;BMP180;7517;48.400;11.770;2023-03-03T10:42:04;96658.00;;;15.10
14851;BMP180;7517;48.400;11.770;2023-03-03T10:45:16;96663.00;;;15.10
14851;BMP180;7517;48.400;11.770;2023-03-03T10:48:06;96666.00;;;15.10
14851;BMP180;7517;48.400;11.770;2023-03-03T10:50:49;96665.00;;;15.20
14851;BMP180;7517;48.400;11.770;2023-03-03T10:53:26;96663.00;;;15.20
14851;BMP180;7517;48.400;11.770;2023-03-03T10:56:14;96661.00;;;15.20
14851;BMP180;7517;48.400;11.770;2023-03-03T10:59:02;96664.00;;;15.20
14851;BMP180;7517;48.400;11.770;2023-03-03T11:01:55;96657.00;;;15.10
14851;BMP180;7517;48.400;11.770;2023-03-03T11:05:04;96648.00;;;15.10
14851;BMP180;7517;48.400;11.770;2023-03-03T11:07:43;96640.00;;;15.10
14851;BMP180;7517;48.400;11.770;2023-03-03T11:10:41;96650.00;;;15.00
14851;BMP180;7517;48.400;11.770;2023-03-03T11:13:20;96651.00;;;15.00
14851;BMP180;7517;48.400;11.770;2023-03-03T11:16:14;96641.00;;;14.90
14851;BMP180;7517;48.400;11.770;2023-03-03T11:19:09;96647.00;;;14.80
14851;BMP180;7517;48.400;11.770;2023-03-03T11:21:46;96644.00;;;14.80
14851;BMP180;7517;48.400;11.770;2023-03-03T11:24:40;96638.00;;;14.70
14851;BMP180;7517;48.400;11.770;2023-03-03T11:27:32;96630.00;;;14.70
14851;BMP180;7517;48.400;11.770;2023-03-03T11:30:30;96624.00;;;14.60
14851;BMP180;7517;48.400;11.770;2023-03-03T11:33:05;96619.00;;;14.50
14851;BMP180;7517;48.400;11.770;2023-03-03T11:35:44;96620.00;;;14.50
14851;BMP180;7517;48.400;11.770;2023-03-03T11:38:36;96619.00;;;14.50
14851;BMP180;7517;48.400;11.770;2023-03-03T11:41:22;96624.00;;;14.50
14851;BMP180;7517;48.400;11.770;2023-03-03T11:43:54;96623.00;;;14.50
14851;BMP180;7517;48.400;11.770;2023-03-03T11:46:31;96625.00;;;14.50
14851;BMP180;7517;48.400;11.770;2023-03-03T11:49:04;96629.00;;;14.50
14851;BMP180;7517;48.400;11.770;2023-03-03T11:51:48;96629.00;;;14.40
14851;BMP180;7517;48.400;11.770;2023-03-03T11:54:23;96627.00;;;14.30
14851;BMP180;7517;48.400;11.770;2023-03-03T11:56:58;96615.00;;;14.30
14851;BMP180;7517;48.400;11.770;2023-03-03T11:59:46;96627.00;;;14.30
14851;BMP180;7517;48.400;11.770;2023-03-03T12:03:09;96611.00;;;14.40
14851;BMP180;7517;48.400;11.770;2023-03-03T12:05:52;96626.00;;;14.40
14851;BMP180;7517;48.400;11.770;2023-03-03T12:11:52;96608.00;;;14.50
14851;BMP180;7517;48.400;11.770;2023-03-03T12:14:45;96610.00;;;14.50
14851;BMP180;7517;48.400;11.770;2023-03-03T12:17:32;96603.00;;;14.50
14851;BMP180;7517;48.400;11.770;2023-03-03T12:20:15;96598.00;;;14.50
14851;BMP180;7517;48.400;11.770;2023-03-03T12:23:00;96600.00;;;14.50
14851;BMP180;7517;48.400;11.770;2023-03-03T12:25:36;96596.00;;;14.50
14851;BMP180;7517;48.400;11.770;2023-03-03T12:28:10;96593.00;;;14.50
14851;BMP180;7517;48.400;11.770;2023-03-03T12:31:03;96598.00;;;14.40
14851;BMP180;7517;48.400;11.770;2023-03-03T12:33:51;96592.00;;;14.40
14851;BMP180;7517;48.400;11.770;2023-03-03T12:36:48;96594.00;;;14.50
14851;BMP180;7517;48.400;11.770;2023-03-03T12:39:33;96590.00;;;14.50
14851;BMP180;7517;48.400;11.770;2023-03-03T12:42:17;96594.00;;;14.50
14851;BMP180;7517;48.400;11.770;2023-03-03T12:44:59;96590.00;;;14.50
14851;BMP180;7517;48.400;11.770;2023-03-03T12:47:38;96588.00;;;14.50
14851;BMP180;7517;48.400;11.770;2023-03-03T12:50:26;96581.00;;;14.50
14851;BMP180;7517;48.400;11.770;2023-03-03T12:53:06;96581.00;;;14.60
14851;BMP180;7517;48.400;11.770;2023-03-03T12:55:47;96581.00;;;14.60
14851;BMP180;7517;48.400;11.770;2023-03-03T12:58:31;96579.00;;;14.60
14851;BMP180;7517;48.400;11.770;2023-03-03T13:01:23;96577.00;;;14.60
14851;BMP180;7517;48.400;11.770;2023-03-03T13:04:04;96576.00;;;14.70
14851;BMP180;7517;48.400;11.770;2023-03-03T13:06:42;96576.00;;;14.60
14851;BMP180;7517;48.400;11.770;2023-03-03T13:09:29;96580.00;;;14.70
14851;BMP180;7517;48.400;11.770;2023-03-03T13:12:23;96573.00;;;14.60
14851;BMP180;7517;48.400;11.770;2023-03-03T13:15:02;96575.00;;;14.70
14851;BMP180;7517;48.400;11.770;2023-03-03T13:17:41;96583.00;;;14.70
14851;BMP180;7517;48.400;11.770;2023-03-03T13:20:26;96577.00;;;14.70
14851;BMP180;7517;48.400;11.770;2023-03-03T13:23:05;96573.00;;;14.70
14851;BMP180;7517;48.400;11.770;2023-03-03T13:25:47;96572.00;;;14.80
14851;BMP180;7517;48.400;11.770;2023-03-03T13:28:27;96559.00;;;14.80
14851;BMP180;7517;48.400;11.770;2023-03-03T13:31:07;96566.00;;;14.80
14851;BMP180;7517;48.400;11.770;2023-03-03T13:33:44;96568.00;;;14.80
14851;BMP180;7517;48.400;11.770;2023-03-03T13:36:17;96565.00;;;14.80
14851;BMP180;7517;48.400;11.770;2023-03-03T13:38:50;96565.00;;;14.70
14851;BMP180;7517;48.400;11.770;2023-03-03T13:41:25;96561.00;;;14.70
14851;BMP180;7517;48.400;11.770;2023-03-03T13:44:01;96559.00;;;14.70
14851;BMP180;7517;48.400;11.770;2023-03-03T13:46:39;96554.00;;;14.70
14851;BMP180;7517;48.400;11.770;2023-03-03T13:49:53;96562.00;;;14.70
14851;BMP180;7517;48.400;11.770;2023-03-03T13:52:28;96559.00;;;14.70
14851;BMP180;7517;48.400;11.770;2023-03-03T13:55:23;96547.00;;;14.70
14851;BMP180;7517;48.400;11.770;2023-03-03T13:58:00;96549.00;;;14.80
14851;BMP180;7517;48.400;11.770;2023-03-03T14:00:52;96546.00;;;14.80
14851;BMP180;7517;48.400;11.770;2023-03-03T14:03:52;96549.00;;;14.80
14851;BMP180;7517;48.400;11.770;2023-03-03T14:06:26;96554.00;;;14.90
14851;BMP180;7517;48.400;11.770;2023-03-03T14:09:23;96545.00;;;14.90
14851;BMP180;7517;48.400;11.770;2023-03-03T14:12:03;96545.00;;;15.00
14851;BMP180;7517;48.400;11.770;2023-03-03T14:14:46;96544.00;;;15.00
14851;BMP180;7517;48.400;11.770;2023-03-03T14:17:28;96534.00;;;15.00
14851;BMP180;7517;48.400;11.770;2023-03-03T14:20:13;96539.00;;;15.00
14851;BMP180;7517;48.400;11.770;2023-03-03T14:22:51;96534.00;;;15.10
14851;BMP180;7517;48.400;11.770;2023-03-03T14:25:18;96539.00;;;15.20
14851;BMP180;7517;48.400;11.770;2023-03-03T14:28:09;96535.00;;;15.20
14851;BMP180;7517;48.400;11.770;2023-03-03T14:30:40;96539.00;;;15.20
14851;BMP180;7517;48.400;11.770;2023-03-03T14:33:25;96541.00;;;15.20
14851;BMP180;7517;48.400;11.770;2023-03-03T14:36:11;96545.00;;;15.30
14851;BMP180;7517;48.400;11.770;2023-03-03T14:38:55;96546.00;;;15.30
14851;BMP180;7517;48.400;11.770;2023-03-03T14:41:38;96551.00;;;15.30
14851;BMP180;7517;48.400;11.770;2023-03-03T14:44:27;96546.00;;;15.40
14851;BMP180;7517;48.400;11.770;2023-03-03T14:47:25;96550.00;;;15.30
14851;BMP180;7517;48.400;11.770;2023-03-03T14:49:56;96545.00;;;15.30
14851;BMP180;7517;48.400;11.770;2023-03-03T14:52:33;96548.00;;;15.30
14851;BMP180;7517;48.400;11.770;2023-03-03T14:55:32;96538.00;;;15.30
14851;BMP180;7517;48.400;11.770;2023-03-03T14:58:02;96540.00;;;15.30
14851;BMP180;7517;48.400;11.770;2023-03-03T15:00:33;96537.00;;;15.30
14851;BMP180;7517;48.400;11.770;2023-03-03T15:03:19;96538.00;;;15.20
14851;BMP180;7517;48.400;11.770;2023-03-03T15:05:52;96527.00;;;15.20
14851;BMP180;7517;48.400;11.770;2023-03-03T15:08:32;96536.00;;;15.10
14851;BMP180;7517;48.400;11.770;2023-03-03T15:11:25;96542.00;;;15.10